RJDT(METAR)
08/23 20:00
METAR RJDT 231100Z VRB02KT CAVOK 24/17 Q1009 RMK A2981=
戻る
トップページへ戻る
IMOC Co,.Ltd.